Main page
METAR-TAF:

METAR-TAF

Airports :

RAF Leeming

Leeming, England

latitude: 54-18N, longitude: 001-32W, elevation: 40 m

Current weather observation

The report was made 48 minutes ago, at 23:50 UTC
Wind 8 kt from the North
Temperature 9°C
Humidity 87%
Pressure 1028 hPa
Visibility 10 km or more

METAR: EGXE 232350Z AUTO 01008KT 9999 OVC009/// 09/07 Q1028

Time: 01:38 (00:38 UTC)

Forecast

The report was made 11 hours and 23 minutes ago, at 13:15 UTC
Forecast valid from 23 at 15 UTC to 23 at 18 UTC
Wind 10 kt from the North/Northeast
Visibility 10 km or more
Few clouds at a height of 2000 ft
Probability 40%
from 23 at 16 UTC to 23 at 18 UTC
Scattered clouds at a height of 2000 ft

TAF: EGXE 231315Z 2315/2318 02010KT 9999 FEW020 PROB40 2316/2318 SCT020

Weather observations and forecasts of more than 4000 airports (METAR and TAF reports).

The available stations are represented by yellow and red dots on the map.

Hover mouse over dot to see the name of the station.

Then click to see weather observations and forecasts.

To change the map : click on the green buttons with a black cross to zoom in, on the green button with a dash to zoom out, or on the green arrows for adjacent maps.


METAR-TAF: